createdAt,value
2018-10-05T00:01:53.011Z,100180.00
2018-10-05T00:04:23.314Z,100176.00
2018-10-05T00:06:53.620Z,100175.00
2018-10-05T00:09:23.934Z,100174.00
2018-10-05T00:11:54.295Z,100170.00
2018-10-05T00:14:24.598Z,100170.00
2018-10-05T00:16:54.896Z,100166.00
2018-10-05T00:19:25.199Z,100164.00
2018-10-05T00:21:55.517Z,100161.00
2018-10-05T00:24:25.843Z,100164.00
2018-10-05T00:26:56.133Z,100164.00
2018-10-05T00:29:26.606Z,100170.00
2018-10-05T00:31:56.908Z,100169.00
2018-10-05T00:34:27.242Z,100167.00
2018-10-05T00:36:57.542Z,100162.00
2018-10-05T00:39:27.889Z,100160.00
2018-10-05T00:41:58.170Z,100157.00
2018-10-05T00:44:28.485Z,100157.00
2018-10-05T00:46:58.801Z,100155.00
2018-10-05T00:49:29.148Z,100150.00
2018-10-05T00:51:59.462Z,100157.00
2018-10-05T00:54:29.767Z,100155.00
2018-10-05T00:57:00.066Z,100152.00
2018-10-05T00:59:30.438Z,100149.00
2018-10-05T01:02:00.738Z,100147.00
2018-10-05T01:04:31.042Z,100147.00
2018-10-05T01:07:01.354Z,100152.00
2018-10-05T01:09:31.651Z,100146.00
2018-10-05T01:12:01.959Z,100147.00
2018-10-05T01:14:32.251Z,100147.00
2018-10-05T01:17:02.579Z,100146.00
2018-10-05T01:19:33.735Z,100145.00
2018-10-05T01:22:04.001Z,100144.00
2018-10-05T01:24:34.227Z,100137.00
2018-10-05T01:27:04.481Z,100140.00
2018-10-05T01:29:34.734Z,100137.00
2018-10-05T01:32:04.986Z,100138.00
2018-10-05T01:34:35.214Z,100136.00
2018-10-05T01:37:05.488Z,100136.00
2018-10-05T01:39:35.726Z,100133.00
2018-10-05T01:42:05.942Z,100129.00
2018-10-05T01:44:36.183Z,100128.00
2018-10-05T01:47:06.634Z,100126.00
2018-10-05T01:49:36.870Z,100125.00
2018-10-05T01:52:07.165Z,100125.00
2018-10-05T01:54:37.405Z,100120.00
2018-10-05T01:57:07.658Z,100123.00
2018-10-05T01:59:37.894Z,100119.00
2018-10-05T02:02:08.171Z,100120.00
2018-10-05T02:04:38.398Z,100110.00
2018-10-05T02:07:08.647Z,100111.00
2018-10-05T02:09:38.894Z,100102.00
2018-10-05T02:12:09.133Z,100103.00
2018-10-05T02:14:39.364Z,100102.00
2018-10-05T02:17:09.606Z,100100.00
2018-10-05T02:19:39.834Z,100098.00
2018-10-05T02:22:10.106Z,100098.00
2018-10-05T02:24:40.345Z,100098.00
2018-10-05T02:27:10.619Z,100094.00
2018-10-05T02:29:41.046Z,100088.00
2018-10-05T02:32:11.362Z,100085.00
2018-10-05T02:34:41.605Z,100085.00
2018-10-05T02:37:11.850Z,100088.00
2018-10-05T02:39:42.070Z,100076.00
2018-10-05T02:42:12.331Z,100072.00
2018-10-05T02:44:42.562Z,100072.00
2018-10-05T02:47:12.821Z,100069.00
2018-10-05T02:49:43.065Z,100068.00
2018-10-05T02:52:13.325Z,100066.00
2018-10-05T02:54:43.572Z,100068.00
2018-10-05T02:57:13.853Z,100068.00
2018-10-05T02:59:44.077Z,100059.00
2018-10-05T03:02:34.364Z,100057.00
2018-10-05T03:05:04.590Z,100060.00
2018-10-05T03:07:34.842Z,100054.00
2018-10-05T03:10:05.070Z,100046.00
2018-10-05T03:12:35.321Z,100048.00
2018-10-05T03:15:05.557Z,100040.00
2018-10-05T03:17:35.810Z,100039.00
2018-10-05T03:20:06.059Z,100032.00
2018-10-05T03:22:36.336Z,100044.00
2018-10-05T03:25:06.875Z,100043.00
2018-10-05T03:27:37.122Z,100036.00
2018-10-05T03:30:07.423Z,100030.00
2018-10-05T03:32:37.709Z,100029.00
2018-10-05T03:35:07.945Z,100030.00
2018-10-05T03:37:38.198Z,100030.00
2018-10-05T03:40:08.455Z,100033.00
2018-10-05T03:42:38.652Z,100034.00
2018-10-05T03:45:09.187Z,100030.00
2018-10-05T03:47:39.393Z,100034.00
2018-10-05T03:50:09.879Z,100033.00
2018-10-05T03:52:40.194Z,100027.00
2018-10-05T03:55:10.426Z,100027.00
2018-10-05T03:57:40.693Z,100025.00
2018-10-05T04:00:10.994Z,100023.00
2018-10-05T04:02:41.245Z,100020.00
2018-10-05T04:05:11.450Z,100013.00
2018-10-05T04:07:41.714Z,100018.00
2018-10-05T04:10:11.976Z,100018.00
2018-10-05T04:12:42.226Z,100019.00
2018-10-05T04:15:12.490Z,100018.00
2018-10-05T04:17:42.883Z,100018.00
2018-10-05T04:20:13.290Z,100013.00
2018-10-05T04:22:49.883Z,100015.00
2018-10-05T04:25:20.138Z,100015.00
2018-10-05T04:27:50.470Z,100013.00
2018-10-05T04:30:20.686Z,100017.00
2018-10-05T04:32:50.949Z,100019.00
2018-10-05T04:35:21.174Z,100018.00
2018-10-05T04:37:51.430Z,100016.00
2018-10-05T04:40:21.683Z,100021.00
2018-10-05T04:42:51.969Z,100016.00
2018-10-05T04:45:22.254Z,100013.00
2018-10-05T04:47:52.526Z,100013.00
2018-10-05T04:50:22.866Z,100013.00
2018-10-05T04:52:59.874Z,100007.00
2018-10-05T04:55:30.106Z,100007.00
2018-10-05T04:58:00.406Z,100003.00
2018-10-05T05:00:30.748Z,100001.00
2018-10-05T05:03:01.053Z,100001.00
2018-10-05T05:05:31.610Z,99999.00
2018-10-05T05:08:01.889Z,99995.00
2018-10-05T05:10:32.206Z,99998.00
2018-10-05T05:13:05.253Z,99998.00
2018-10-05T05:15:35.554Z,100003.00
2018-10-05T05:18:06.029Z,100000.00
2018-10-05T05:20:36.285Z,99997.00
2018-10-05T05:23:12.826Z,99997.00
2018-10-05T05:25:43.078Z,100001.00
2018-10-05T05:28:13.329Z,99998.00
2018-10-05T05:30:43.562Z,100000.00
2018-10-05T05:33:13.890Z,100000.00
2018-10-05T05:35:44.233Z,100004.00
2018-10-05T05:38:14.506Z,100006.00
2018-10-05T05:40:44.766Z,100009.00
2018-10-05T05:43:15.083Z,100002.00
2018-10-05T05:45:45.352Z,100009.00
2018-10-05T05:48:15.581Z,100005.00
2018-10-05T05:50:45.852Z,100006.00
2018-10-05T05:53:16.110Z,100005.00
2018-10-05T05:55:46.345Z,100004.00
2018-10-05T05:58:16.573Z,100002.00
2018-10-05T06:00:46.843Z,100001.00
2018-10-05T06:03:17.094Z,100000.00
2018-10-05T06:05:47.354Z,100001.00
2018-10-05T06:08:18.086Z,99999.00
2018-10-05T06:10:48.285Z,100002.00
2018-10-05T06:13:18.532Z,99998.00
2018-10-05T06:15:48.791Z,99996.00
2018-10-05T06:18:19.086Z,100006.00
2018-10-05T06:20:49.428Z,100006.00
2018-10-05T06:23:19.686Z,100009.00
2018-10-05T06:25:50.007Z,100005.00
2018-10-05T06:28:20.294Z,99999.00
2018-10-05T06:30:50.650Z,99996.00
2018-10-05T06:33:20.988Z,99994.00
2018-10-05T06:35:51.722Z,99998.00
2018-10-05T06:38:22.018Z,99999.00
2018-10-05T06:40:52.317Z,99997.00
2018-10-05T06:43:22.648Z,100002.00
2018-10-05T06:45:52.982Z,100004.00
2018-10-05T06:48:23.919Z,100004.00
2018-10-05T06:50:54.235Z,100003.00
2018-10-05T06:53:24.825Z,100007.00
2018-10-05T06:55:55.119Z,100001.00
2018-10-05T06:58:25.397Z,99999.00
2018-10-05T07:00:55.678Z,100006.00
2018-10-05T07:03:26.211Z,100007.00
2018-10-05T07:05:56.546Z,100006.00
2018-10-05T07:08:26.927Z,100008.00
2018-10-05T07:10:57.296Z,100007.00
2018-10-05T07:13:27.562Z,100007.00
2018-10-05T07:15:58.001Z,99997.00
2018-10-05T07:18:28.309Z,99995.00
2018-10-05T07:20:58.698Z,99999.00
2018-10-05T07:23:29.057Z,99993.00
2018-10-05T07:25:59.426Z,99991.00
2018-10-05T07:28:30.072Z,99984.00
2018-10-05T07:31:00.366Z,99983.00
2018-10-05T07:33:30.681Z,99975.00
2018-10-05T07:36:01.000Z,99977.00
2018-10-05T07:38:31.292Z,99973.00
2018-10-05T07:42:26.390Z,99971.00
2018-10-05T07:44:56.705Z,99969.00
2018-10-05T07:47:26.994Z,99966.00
2018-10-05T07:49:57.305Z,99962.00
2018-10-05T07:52:27.611Z,99963.00
2018-10-05T07:54:57.920Z,99960.00
2018-10-05T07:57:28.312Z,99958.00
2018-10-05T08:00:05.215Z,99958.00
2018-10-05T08:02:35.495Z,99960.00
2018-10-05T08:05:05.822Z,99962.00
2018-10-05T08:07:36.154Z,99965.00
2018-10-05T08:10:06.438Z,99964.00
2018-10-05T08:12:36.753Z,99961.00
2018-10-05T08:15:07.454Z,99965.00
2018-10-05T08:17:37.750Z,99970.00
2018-10-05T08:20:08.033Z,99964.00
2018-10-05T08:22:38.302Z,99958.00
2018-10-05T08:25:08.590Z,99956.00
2018-10-05T08:27:38.850Z,99953.00
2018-10-05T08:30:09.509Z,99949.00
2018-10-05T08:32:39.785Z,99942.00
2018-10-05T08:35:10.280Z,99935.00
2018-10-05T08:37:40.669Z,99932.00
2018-10-05T08:40:11.398Z,99924.00
2018-10-05T08:42:41.621Z,99923.00
2018-10-05T08:45:11.870Z,99915.00
2018-10-05T08:47:42.124Z,99922.00
2018-10-05T08:50:12.361Z,99920.00
2018-10-05T08:52:49.345Z,99921.00
2018-10-05T08:55:19.561Z,99919.00
2018-10-05T08:57:49.800Z,99914.00
2018-10-05T09:00:20.083Z,99917.00
2018-10-05T09:02:50.341Z,99914.00
2018-10-05T09:05:20.576Z,99905.00
2018-10-05T09:07:50.854Z,99903.00
2018-10-05T09:10:21.309Z,99902.00
2018-10-05T09:12:51.538Z,99899.00
2018-10-05T09:15:21.847Z,99894.00
2018-10-05T09:17:52.271Z,99890.00
2018-10-05T09:20:22.344Z,99893.00
2018-10-05T09:22:53.083Z,99883.00
2018-10-05T09:25:23.382Z,99877.00
2018-10-05T09:27:53.763Z,99874.00
2018-10-05T09:30:24.050Z,99864.00
2018-10-05T09:32:54.365Z,99867.00
2018-10-05T09:35:24.683Z,99858.00
2018-10-05T09:37:55.054Z,99856.00
2018-10-05T09:40:25.282Z,99858.00
2018-10-05T09:42:55.593Z,99850.00
2018-10-05T09:45:25.886Z,99852.00
2018-10-05T09:47:56.210Z,99847.00
2018-10-05T09:50:26.507Z,99841.00
2018-10-05T09:52:56.878Z,99836.00
2018-10-05T09:55:27.173Z,99835.00
2018-10-05T09:57:57.792Z,99827.00
2018-10-05T10:01:30.967Z,99826.00
2018-10-05T10:04:01.311Z,99820.00
2018-10-05T10:06:31.606Z,99817.00
2018-10-05T10:09:01.938Z,99815.00
2018-10-05T10:11:32.233Z,99816.00
2018-10-05T10:14:02.894Z,99813.00
2018-10-05T10:16:33.233Z,99805.00
2018-10-05T10:19:03.564Z,99804.00
2018-10-05T10:21:33.823Z,99807.00
2018-10-05T10:24:04.093Z,99807.00
2018-10-05T10:26:34.325Z,99800.00
2018-10-05T10:29:04.661Z,99801.00
2018-10-05T10:31:34.855Z,99797.00
2018-10-05T10:34:05.118Z,99798.00
2018-10-05T10:36:35.375Z,99789.00
2018-10-05T10:39:07.697Z,99786.00
2018-10-05T10:41:37.946Z,99783.00
2018-10-05T10:44:08.209Z,99780.00
2018-10-05T10:46:38.442Z,99779.00
2018-10-05T10:49:08.729Z,99780.00
2018-10-05T10:51:39.042Z,99779.00
2018-10-05T10:54:09.336Z,99771.00
2018-10-05T10:56:39.517Z,99767.00
2018-10-05T10:59:09.766Z,99772.00
2018-10-05T11:01:40.027Z,99763.00
2018-10-05T11:04:10.378Z,99757.00
2018-10-05T11:06:40.602Z,99754.00
2018-10-05T11:09:10.853Z,99749.00
2018-10-05T11:11:41.090Z,99745.00
2018-10-05T11:14:11.333Z,99744.00
2018-10-05T11:16:41.569Z,99746.00
2018-10-05T11:19:11.837Z,99744.00
2018-10-05T11:21:42.148Z,99738.00
2018-10-05T11:24:12.466Z,99734.00
2018-10-05T11:26:42.777Z,99732.00
2018-10-05T11:29:13.100Z,99728.00
2018-10-05T11:31:43.389Z,99725.00
2018-10-05T11:34:13.695Z,99718.00
2018-10-05T11:36:44.036Z,99714.00
2018-10-05T11:39:14.329Z,99712.00
2018-10-05T11:41:44.627Z,99699.00
2018-10-05T11:44:15.040Z,99697.00
2018-10-05T11:46:45.321Z,99686.00
2018-10-05T11:49:15.626Z,99685.00
2018-10-05T11:51:45.912Z,99682.00
2018-10-05T11:54:16.280Z,99684.00
2018-10-05T11:56:46.568Z,99683.00
2018-10-05T11:59:16.918Z,99678.00
2018-10-05T12:01:47.222Z,99670.00
2018-10-05T12:04:17.561Z,99671.00
2018-10-05T12:06:47.934Z,99669.00
2018-10-05T12:09:18.242Z,99665.00
2018-10-05T12:11:48.618Z,99666.00
2018-10-05T12:14:18.912Z,99668.00
2018-10-05T12:16:49.234Z,99667.00
2018-10-05T12:19:19.857Z,99659.00
2018-10-05T12:21:50.124Z,99654.00
2018-10-05T12:24:20.374Z,99647.00
2018-10-05T12:26:50.625Z,99647.00
2018-10-05T12:29:20.865Z,99643.00
2018-10-05T12:31:51.129Z,99642.00
2018-10-05T12:34:21.354Z,99644.00
2018-10-05T12:36:51.601Z,99643.00
2018-10-05T12:39:21.842Z,99634.00
2018-10-05T12:41:52.145Z,99634.00
2018-10-05T12:44:22.343Z,99632.00
2018-10-05T12:46:52.597Z,99626.00
2018-10-05T12:49:22.845Z,99632.00
2018-10-05T12:51:53.095Z,99625.00
2018-10-05T12:54:24.094Z,99620.00
2018-10-05T12:56:54.351Z,99617.00
2018-10-05T12:59:24.572Z,99616.00
2018-10-05T13:01:54.842Z,99610.00
2018-10-05T13:04:25.075Z,99611.00
2018-10-05T13:06:55.326Z,99606.00
2018-10-05T13:09:25.586Z,99602.00
2018-10-05T13:11:55.844Z,99597.00
2018-10-05T13:14:26.078Z,99587.00
2018-10-05T13:16:56.334Z,99585.00
2018-10-05T13:19:26.551Z,99588.00
2018-10-05T13:21:56.942Z,99582.00
2018-10-05T13:24:27.180Z,99574.00
2018-10-05T13:26:57.473Z,99573.00
2018-10-05T13:29:27.754Z,99572.00
2018-10-05T13:31:58.080Z,99568.00
2018-10-05T13:34:28.374Z,99574.00
2018-10-05T13:36:58.721Z,99570.00
2018-10-05T13:39:29.023Z,99567.00
2018-10-05T13:41:59.448Z,99563.00
2018-10-05T13:44:29.653Z,99555.00
2018-10-05T13:46:59.966Z,99555.00
2018-10-05T13:49:30.253Z,99556.00
2018-10-05T13:52:00.572Z,99554.00
2018-10-05T13:54:30.885Z,99550.00
2018-10-05T13:57:01.233Z,99547.00
2018-10-05T13:59:31.521Z,99547.00
2018-10-05T14:02:01.857Z,99545.00
2018-10-05T14:04:32.160Z,99540.00
2018-10-05T14:07:02.521Z,99541.00
2018-10-05T14:09:32.795Z,99541.00
2018-10-05T14:12:03.111Z,99535.00
2018-10-05T14:14:33.407Z,99536.00
2018-10-05T14:17:03.746Z,99533.00
2018-10-05T14:19:34.042Z,99537.00
2018-10-05T14:22:04.380Z,99534.00
2018-10-05T14:24:34.786Z,99531.00
2018-10-05T14:27:05.122Z,99529.00
2018-10-05T14:29:35.519Z,99527.00
2018-10-05T14:32:05.825Z,99526.00
2018-10-05T14:34:36.129Z,99523.00
2018-10-05T14:37:06.438Z,99513.00
2018-10-05T14:39:36.755Z,99504.00
2018-10-05T14:42:07.091Z,99505.00
2018-10-05T14:44:37.417Z,99501.00
2018-10-05T14:47:07.814Z,99502.00
2018-10-05T14:49:38.232Z,99497.00
2018-10-05T14:52:08.486Z,99496.00
2018-10-05T14:54:38.778Z,99499.00
2018-10-05T14:57:09.184Z,99496.00
2018-10-05T14:59:39.395Z,99497.00
2018-10-05T15:02:09.701Z,99498.00
2018-10-05T15:04:40.000Z,99495.00
2018-10-05T15:07:10.589Z,99498.00
2018-10-05T15:09:40.795Z,99497.00
2018-10-05T15:12:17.685Z,99495.00
2018-10-05T15:14:48.041Z,99490.00
2018-10-05T15:17:18.366Z,99488.00
2018-10-05T15:19:48.670Z,99478.00
2018-10-05T15:22:18.959Z,99478.00
2018-10-05T15:24:50.109Z,99474.00
2018-10-05T15:27:20.387Z,99466.00
2018-10-05T15:29:50.724Z,99469.00
2018-10-05T15:32:21.027Z,99465.00
2018-10-05T15:34:51.340Z,99465.00
2018-10-05T15:37:21.662Z,99461.00
2018-10-05T15:39:51.895Z,99457.00
2018-10-05T15:42:22.173Z,99452.00
2018-10-05T15:44:52.450Z,99449.00
2018-10-05T15:47:23.684Z,99444.00
2018-10-05T15:49:53.920Z,99445.00
2018-10-05T15:52:24.290Z,99443.00
2018-10-05T15:54:54.535Z,99440.00
2018-10-05T15:57:24.798Z,99444.00
2018-10-05T15:59:55.031Z,99446.00
2018-10-05T16:02:25.283Z,99452.00
2018-10-05T16:04:55.519Z,99449.00
2018-10-05T16:07:25.777Z,99448.00
2018-10-05T16:09:56.027Z,99444.00
2018-10-05T16:12:26.333Z,99438.00
2018-10-05T16:14:56.510Z,99445.00
2018-10-05T16:17:26.743Z,99438.00
2018-10-05T16:19:56.999Z,99436.00
2018-10-05T16:22:27.254Z,99433.00
2018-10-05T16:24:57.697Z,99435.00
2018-10-05T16:27:28.157Z,99434.00
2018-10-05T16:29:58.453Z,99437.00
2018-10-05T16:32:28.720Z,99433.00
2018-10-05T16:34:58.962Z,99424.00
2018-10-05T16:37:29.287Z,99427.00
2018-10-05T16:39:59.529Z,99423.00
2018-10-05T16:42:29.758Z,99424.00
2018-10-05T16:45:00.023Z,99428.00
2018-10-05T16:47:30.268Z,99426.00
2018-10-05T16:50:00.599Z,99424.00
2018-10-05T16:52:30.743Z,99427.00
2018-10-05T16:55:00.998Z,99426.00
2018-10-05T16:57:31.226Z,99432.00
2018-10-05T17:00:01.590Z,99427.00
2018-10-05T17:02:31.817Z,99431.00
2018-10-05T17:05:02.087Z,99432.00
2018-10-05T17:07:32.322Z,99424.00
2018-10-05T17:10:02.560Z,99425.00
2018-10-05T17:12:32.790Z,99424.00
2018-10-05T17:15:03.042Z,99421.00
2018-10-05T17:17:33.281Z,99419.00
2018-10-05T17:20:03.639Z,99418.00
2018-10-05T17:22:33.933Z,99410.00
2018-10-05T17:25:04.330Z,99420.00
2018-10-05T17:27:34.641Z,99418.00
2018-10-05T17:30:05.389Z,99420.00
2018-10-05T17:32:35.786Z,99426.00
2018-10-05T17:35:06.198Z,99425.00
2018-10-05T17:37:36.382Z,99425.00
2018-10-05T17:40:07.913Z,99424.00
2018-10-05T17:42:38.194Z,99414.00
2018-10-05T17:45:08.585Z,99412.00
2018-10-05T17:47:38.849Z,99413.00
2018-10-05T17:50:09.183Z,99406.00
2018-10-05T17:52:39.494Z,99410.00
2018-10-05T17:55:09.880Z,99408.00
2018-10-05T17:57:40.167Z,99407.00
2018-10-05T18:00:10.481Z,99411.00
2018-10-05T18:02:40.814Z,99408.00
2018-10-05T18:05:11.211Z,99407.00
2018-10-05T18:07:41.512Z,99406.00
2018-10-05T18:10:11.819Z,99405.00
2018-10-05T18:12:42.114Z,99403.00
2018-10-05T18:15:12.418Z,99411.00
2018-10-05T18:17:42.712Z,99414.00
2018-10-05T18:20:13.007Z,99417.00
2018-10-05T18:22:43.389Z,99415.00
2018-10-05T18:25:13.638Z,99413.00
2018-10-05T18:27:43.922Z,99413.00
2018-10-05T18:30:14.177Z,99407.00
2018-10-05T18:32:44.438Z,99407.00
2018-10-05T18:35:14.693Z,99401.00
2018-10-05T18:37:44.908Z,99402.00
2018-10-05T18:40:15.244Z,99403.00
2018-10-05T18:42:45.528Z,99405.00
2018-10-05T18:45:15.762Z,99403.00
2018-10-05T18:47:46.078Z,99405.00
2018-10-05T18:50:16.321Z,99404.00
2018-10-05T18:52:47.786Z,99405.00
2018-10-05T18:55:18.026Z,99402.00
2018-10-05T18:57:48.250Z,99397.00
2018-10-05T19:00:18.534Z,99399.00
2018-10-05T19:02:48.737Z,99398.00
2018-10-05T19:05:19.047Z,99392.00
2018-10-05T19:07:49.313Z,99390.00
2018-10-05T19:10:19.519Z,99400.00
2018-10-05T19:12:49.766Z,99398.00
2018-10-05T19:15:19.988Z,99402.00
2018-10-05T19:17:50.211Z,99404.00
2018-10-05T19:20:20.550Z,99407.00
2018-10-05T19:22:50.827Z,99409.00
2018-10-05T19:25:21.067Z,99404.00
2018-10-05T19:27:51.329Z,99402.00
2018-10-05T19:30:21.566Z,99405.00
2018-10-05T19:32:51.832Z,99404.00
2018-10-05T19:35:22.066Z,99403.00
2018-10-05T19:37:52.333Z,99410.00
2018-10-05T19:40:22.571Z,99413.00
2018-10-05T19:42:52.828Z,99407.00
2018-10-05T19:45:23.069Z,99410.00
2018-10-05T19:47:53.326Z,99405.00
2018-10-05T19:50:23.554Z,99400.00
2018-10-05T19:52:53.841Z,99400.00
2018-10-05T19:55:24.062Z,99403.00
2018-10-05T19:57:54.322Z,99400.00
2018-10-05T20:00:24.553Z,99397.00
2018-10-05T20:02:54.997Z,99397.00
2018-10-05T20:05:25.805Z,99395.00
2018-10-05T20:07:56.052Z,99399.00
2018-10-05T20:10:26.309Z,99394.00
2018-10-05T20:12:56.567Z,99398.00
2018-10-05T20:15:26.888Z,99396.00
2018-10-05T20:17:57.130Z,99397.00
2018-10-05T20:20:27.323Z,99394.00
2018-10-05T20:22:57.603Z,99398.00
2018-10-05T20:25:27.834Z,99391.00
2018-10-05T20:27:58.110Z,99392.00
2018-10-05T20:30:28.343Z,99394.00
2018-10-05T20:32:58.578Z,99396.00
2018-10-05T20:35:28.808Z,99395.00
2018-10-05T20:37:59.059Z,99396.00
2018-10-05T20:40:29.299Z,99393.00
2018-10-05T20:42:59.527Z,99396.00
2018-10-05T20:45:29.857Z,99392.00
2018-10-05T20:48:00.098Z,99392.00
2018-10-05T20:50:30.367Z,99388.00
2018-10-05T20:53:00.627Z,99394.00
2018-10-05T20:55:31.095Z,99388.00
2018-10-05T20:58:01.350Z,99389.00
2018-10-05T21:00:31.605Z,99393.00
2018-10-05T21:03:02.058Z,99391.00
2018-10-05T21:05:32.314Z,99390.00
2018-10-05T21:08:02.546Z,99394.00
2018-10-05T21:10:32.799Z,99392.00
2018-10-05T21:13:03.039Z,99388.00
2018-10-05T21:15:33.308Z,99384.00
2018-10-05T21:18:03.555Z,99380.00
2018-10-05T21:20:33.849Z,99376.00
2018-10-05T21:23:04.130Z,99382.00
2018-10-05T21:25:34.355Z,99378.00
2018-10-05T21:28:04.570Z,99378.00
2018-10-05T21:30:34.803Z,99378.00
2018-10-05T21:33:05.158Z,99378.00
2018-10-05T21:35:35.306Z,99379.00
2018-10-05T21:38:05.550Z,99375.00
2018-10-05T21:40:35.794Z,99376.00
2018-10-05T21:43:06.042Z,99371.00
2018-10-05T21:45:36.271Z,99366.00
2018-10-05T21:48:06.547Z,99371.00
2018-10-05T21:50:36.782Z,99371.00
2018-10-05T21:53:07.025Z,99368.00
2018-10-05T21:55:37.262Z,99368.00
2018-10-05T21:58:07.514Z,99367.00
2018-10-05T22:00:42.526Z,99366.00
2018-10-05T22:03:12.790Z,99368.00
2018-10-05T22:05:43.021Z,99368.00
2018-10-05T22:08:13.277Z,99361.00
2018-10-05T22:10:43.536Z,99366.00
2018-10-05T22:13:13.761Z,99362.00
2018-10-05T22:15:44.022Z,99361.00
2018-10-05T22:18:14.256Z,99365.00
2018-10-05T22:20:44.518Z,99362.00
2018-10-05T22:23:14.835Z,99358.00
2018-10-05T22:25:45.146Z,99356.00
2018-10-05T22:28:15.444Z,99362.00
2018-10-05T22:30:45.719Z,99356.00
2018-10-05T22:33:16.217Z,99360.00
2018-10-05T22:35:46.554Z,99356.00
2018-10-05T22:38:16.855Z,99353.00
2018-10-05T22:40:47.130Z,99357.00
2018-10-05T22:43:17.366Z,99351.00
2018-10-05T22:45:47.622Z,99348.00
2018-10-05T22:48:17.846Z,99342.00
2018-10-05T22:50:48.092Z,99338.00
2018-10-05T22:53:18.331Z,99336.00
2018-10-05T22:55:48.606Z,99338.00
2018-10-05T22:58:18.840Z,99342.00
2018-10-05T23:00:49.108Z,99343.00
2018-10-05T23:03:19.354Z,99344.00
2018-10-05T23:05:49.606Z,99343.00
2018-10-05T23:08:19.834Z,99340.00
2018-10-05T23:10:50.059Z,99338.00
2018-10-05T23:13:20.297Z,99345.00
2018-10-05T23:15:50.518Z,99337.00
2018-10-05T23:18:20.870Z,99340.00
2018-10-05T23:20:51.200Z,99337.00
2018-10-05T23:23:21.498Z,99339.00
2018-10-05T23:25:51.810Z,99330.00
2018-10-05T23:28:22.097Z,99334.00
2018-10-05T23:30:52.410Z,99333.00
2018-10-05T23:33:22.706Z,99330.00
2018-10-05T23:35:53.026Z,99328.00
2018-10-05T23:38:23.342Z,99325.00
2018-10-05T23:40:53.660Z,99328.00
2018-10-05T23:43:23.940Z,99324.00
2018-10-05T23:45:54.257Z,99327.00
2018-10-05T23:48:24.557Z,99325.00
2018-10-05T23:50:54.879Z,99322.00
2018-10-05T23:53:25.162Z,99315.00
2018-10-05T23:55:55.483Z,99319.00
2018-10-05T23:58:25.781Z,99322.00
